sensor_id;sensor_type;location;lat;lon;timestamp;temperature;humidity
23532;DHT22;11943;52.270;20.978;2022-09-09T00:00:18;12.50;99.90
23532;DHT22;11943;52.270;20.978;2022-09-09T00:02:45;12.40;99.90
23532;DHT22;11943;52.270;20.978;2022-09-09T00:07:51;12.30;99.90
23532;DHT22;11943;52.270;20.978;2022-09-09T00:12:55;12.30;99.90
23532;DHT22;11943;52.270;20.978;2022-09-09T00:15:23;12.10;99.90
23532;DHT22;11943;52.270;20.978;2022-09-09T00:28:13;12.00;99.90
23532;DHT22;11943;52.270;20.978;2022-09-09T00:30:42;12.00;99.90
23532;DHT22;11943;52.270;20.978;2022-09-09T00:33:12;12.00;99.90
23532;DHT22;11943;52.270;20.978;2022-09-09T00:35:58;12.10;99.90
23532;DHT22;11943;52.270;20.978;2022-09-09T00:38:25;12.10;99.90
23532;DHT22;11943;52.270;20.978;2022-09-09T00:40:52;12.00;99.90
23532;DHT22;11943;52.270;20.978;2022-09-09T00:43:24;12.00;99.90
23532;DHT22;11943;52.270;20.978;2022-09-09T00:51:12;12.00;99.90
23532;DHT22;11943;52.270;20.978;2022-09-09T00:54:00;12.00;99.90
23532;DHT22;11943;52.270;20.978;2022-09-09T00:56:27;11.90;99.90
23532;DHT22;11943;52.270;20.978;2022-09-09T01:01:23;11.90;99.90
23532;DHT22;11943;52.270;20.978;2022-09-09T01:03:55;13.10;99.90
23532;DHT22;11943;52.270;20.978;2022-09-09T01:11:38;12.00;99.90
23532;DHT22;11943;52.270;20.978;2022-09-09T01:16:45;11.90;99.90
23532;DHT22;11943;52.270;20.978;2022-09-09T01:19:14;14.30;99.90
23532;DHT22;11943;52.270;20.978;2022-09-09T01:26:48;11.80;99.90
23532;DHT22;11943;52.270;20.978;2022-09-09T01:29:16;12.00;99.90
23532;DHT22;11943;52.270;20.978;2022-09-09T01:31:51;11.80;99.90
23532;DHT22;11943;52.270;20.978;2022-09-09T01:34:17;11.80;99.90
23532;DHT22;11943;52.270;20.978;2022-09-09T01:36:44;11.80;99.90
23532;DHT22;11943;52.270;20.978;2022-09-09T01:39:11;11.80;99.90
23532;DHT22;11943;52.270;20.978;2022-09-09T01:41:37;11.70;99.90
23532;DHT22;11943;52.270;20.978;2022-09-09T01:44:03;11.80;99.90
23532;DHT22;11943;52.270;20.978;2022-09-09T01:46:28;12.30;99.90
23532;DHT22;11943;52.270;20.978;2022-09-09T01:51:57;11.90;99.90
23532;DHT22;11943;52.270;20.978;2022-09-09T01:54:41;11.80;99.90
23532;DHT22;11943;52.270;20.978;2022-09-09T02:06:58;11.90;99.90
23532;DHT22;11943;52.270;20.978;2022-09-09T02:09:25;12.00;99.90
23532;DHT22;11943;52.270;20.978;2022-09-09T02:11:54;12.80;99.90
23532;DHT22;11943;52.270;20.978;2022-09-09T02:14:22;12.50;99.90
23532;DHT22;11943;52.270;20.978;2022-09-09T02:16:50;12.10;99.90
23532;DHT22;11943;52.270;20.978;2022-09-09T02:19:19;12.40;99.90
23532;DHT22;11943;52.270;20.978;2022-09-09T02:21:49;12.50;99.90
23532;DHT22;11943;52.270;20.978;2022-09-09T02:24:15;11.90;99.90
23532;DHT22;11943;52.270;20.978;2022-09-09T02:26:41;11.90;99.90
23532;DHT22;11943;52.270;20.978;2022-09-09T02:29:08;12.60;99.90
23532;DHT22;11943;52.270;20.978;2022-09-09T02:31:36;11.90;99.90
23532;DHT22;11943;52.270;20.978;2022-09-09T02:34:02;11.90;99.90
23532;DHT22;11943;52.270;20.978;2022-09-09T02:36:29;11.90;99.90
23532;DHT22;11943;52.270;20.978;2022-09-09T02:38:56;11.90;99.90
23532;DHT22;11943;52.270;20.978;2022-09-09T02:41:26;12.00;99.90
23532;DHT22;11943;52.270;20.978;2022-09-09T02:43:53;12.00;99.90
23532;DHT22;11943;52.270;20.978;2022-09-09T02:46:27;12.30;99.90
23532;DHT22;11943;52.270;20.978;2022-09-09T02:48:59;12.00;99.90
23532;DHT22;11943;52.270;20.978;2022-09-09T02:54:01;11.90;99.90
23532;DHT22;11943;52.270;20.978;2022-09-09T02:56:29;11.80;99.90
23532;DHT22;11943;52.270;20.978;2022-09-09T02:58:58;11.90;99.90
23532;DHT22;11943;52.270;20.978;2022-09-09T03:01:23;12.00;99.90
23532;DHT22;11943;52.270;20.978;2022-09-09T03:03:49;12.20;99.90
23532;DHT22;11943;52.270;20.978;2022-09-09T03:06:14;11.90;99.90
23532;DHT22;11943;52.270;20.978;2022-09-09T03:08:40;11.90;99.90
23532;DHT22;11943;52.270;20.978;2022-09-09T03:11:05;11.90;99.90
23532;DHT22;11943;52.270;20.978;2022-09-09T03:13:31;11.80;99.90
23532;DHT22;11943;52.270;20.978;2022-09-09T03:15:56;12.60;99.90
23532;DHT22;11943;52.270;20.978;2022-09-09T03:18:22;11.80;99.90
23532;DHT22;11943;52.270;20.978;2022-09-09T03:20:48;12.10;99.90
23532;DHT22;11943;52.270;20.978;2022-09-09T03:23:13;12.00;99.90
23532;DHT22;11943;52.270;20.978;2022-09-09T03:25:39;12.00;99.90
23532;DHT22;11943;52.270;20.978;2022-09-09T03:28:04;12.00;99.90
23532;DHT22;11943;52.270;20.978;2022-09-09T03:30:30;12.20;99.90
23532;DHT22;11943;52.270;20.978;2022-09-09T03:32:55;12.00;99.90
23532;DHT22;11943;52.270;20.978;2022-09-09T03:35:22;11.90;99.90
23532;DHT22;11943;52.270;20.978;2022-09-09T03:37:47;12.30;99.90
23532;DHT22;11943;52.270;20.978;2022-09-09T03:40:13;11.90;99.90
23532;DHT22;11943;52.270;20.978;2022-09-09T03:42:39;11.90;99.90
23532;DHT22;11943;52.270;20.978;2022-09-09T03:45:05;11.90;99.90
23532;DHT22;11943;52.270;20.978;2022-09-09T03:47:31;11.90;99.90
23532;DHT22;11943;52.270;20.978;2022-09-09T03:49:57;12.10;99.90
23532;DHT22;11943;52.270;20.978;2022-09-09T03:52:22;11.90;99.90
23532;DHT22;11943;52.270;20.978;2022-09-09T03:54:50;11.90;99.90
23532;DHT22;11943;52.270;20.978;2022-09-09T03:57:16;12.30;99.90
23532;DHT22;11943;52.270;20.978;2022-09-09T03:59:42;12.00;99.90
23532;DHT22;11943;52.270;20.978;2022-09-09T04:02:08;12.00;99.90
23532;DHT22;11943;52.270;20.978;2022-09-09T04:04:34;11.90;99.90
23532;DHT22;11943;52.270;20.978;2022-09-09T04:06:59;12.00;99.90
23532;DHT22;11943;52.270;20.978;2022-09-09T04:09:25;12.10;99.90
23532;DHT22;11943;52.270;20.978;2022-09-09T04:11:50;12.10;99.90
23532;DHT22;11943;52.270;20.978;2022-09-09T04:14:16;12.20;99.90
23532;DHT22;11943;52.270;20.978;2022-09-09T04:16:42;12.00;99.90
23532;DHT22;11943;52.270;20.978;2022-09-09T04:19:10;11.90;99.90
23532;DHT22;11943;52.270;20.978;2022-09-09T04:21:38;12.00;99.90
23532;DHT22;11943;52.270;20.978;2022-09-09T04:24:05;12.30;99.90
23532;DHT22;11943;52.270;20.978;2022-09-09T04:26:31;12.00;99.90
23532;DHT22;11943;52.270;20.978;2022-09-09T04:28:56;11.90;99.90
23532;DHT22;11943;52.270;20.978;2022-09-09T04:31:22;12.00;99.90
23532;DHT22;11943;52.270;20.978;2022-09-09T04:33:51;12.00;99.90
23532;DHT22;11943;52.270;20.978;2022-09-09T04:36:17;12.00;99.90
23532;DHT22;11943;52.270;20.978;2022-09-09T04:38:43;12.30;99.90
23532;DHT22;11943;52.270;20.978;2022-09-09T04:41:09;12.10;99.90
23532;DHT22;11943;52.270;20.978;2022-09-09T04:43:36;12.10;99.90
23532;DHT22;11943;52.270;20.978;2022-09-09T04:46:02;12.20;99.90
23532;DHT22;11943;52.270;20.978;2022-09-09T04:48:28;12.20;99.90
23532;DHT22;11943;52.270;20.978;2022-09-09T04:50:55;12.20;99.90
23532;DHT22;11943;52.270;20.978;2022-09-09T04:53:20;12.20;99.90
23532;DHT22;11943;52.270;20.978;2022-09-09T04:55:47;12.20;99.90
23532;DHT22;11943;52.270;20.978;2022-09-09T04:58:13;12.70;99.90
23532;DHT22;11943;52.270;20.978;2022-09-09T05:00:38;12.20;99.90
23532;DHT22;11943;52.270;20.978;2022-09-09T05:03:04;12.30;99.90
23532;DHT22;11943;52.270;20.978;2022-09-09T05:05:30;12.20;99.90
23532;DHT22;11943;52.270;20.978;2022-09-09T05:08:00;12.30;99.90
23532;DHT22;11943;52.270;20.978;2022-09-09T05:10:25;12.40;99.90
23532;DHT22;11943;52.270;20.978;2022-09-09T05:12:52;12.30;99.90
23532;DHT22;11943;52.270;20.978;2022-09-09T05:15:18;12.30;99.90
23532;DHT22;11943;52.270;20.978;2022-09-09T05:17:43;12.30;99.90
23532;DHT22;11943;52.270;20.978;2022-09-09T05:20:09;12.20;99.90
23532;DHT22;11943;52.270;20.978;2022-09-09T05:22:34;12.30;99.90
23532;DHT22;11943;52.270;20.978;2022-09-09T05:25:00;12.30;99.90
23532;DHT22;11943;52.270;20.978;2022-09-09T05:27:26;12.30;99.90
23532;DHT22;11943;52.270;20.978;2022-09-09T05:29:52;12.30;99.90
23532;DHT22;11943;52.270;20.978;2022-09-09T05:32:17;12.20;99.90
23532;DHT22;11943;52.270;20.978;2022-09-09T05:34:43;12.30;99.90
23532;DHT22;11943;52.270;20.978;2022-09-09T05:37:08;12.20;99.90
23532;DHT22;11943;52.270;20.978;2022-09-09T05:39:34;12.30;99.90
23532;DHT22;11943;52.270;20.978;2022-09-09T05:42:02;12.30;99.90
23532;DHT22;11943;52.270;20.978;2022-09-09T05:44:29;12.30;99.90
23532;DHT22;11943;52.270;20.978;2022-09-09T05:46:54;12.20;99.90
23532;DHT22;11943;52.270;20.978;2022-09-09T05:49:20;12.20;99.90
23532;DHT22;11943;52.270;20.978;2022-09-09T05:51:46;12.30;99.90
23532;DHT22;11943;52.270;20.978;2022-09-09T05:54:13;12.20;99.90
23532;DHT22;11943;52.270;20.978;2022-09-09T05:56:40;12.40;99.90
23532;DHT22;11943;52.270;20.978;2022-09-09T05:59:06;12.40;99.90
23532;DHT22;11943;52.270;20.978;2022-09-09T06:01:33;12.40;99.90
23532;DHT22;11943;52.270;20.978;2022-09-09T06:03:59;12.50;99.90
23532;DHT22;11943;52.270;20.978;2022-09-09T06:06:25;12.50;99.90
23532;DHT22;11943;52.270;20.978;2022-09-09T06:08:52;12.60;99.90
23532;DHT22;11943;52.270;20.978;2022-09-09T06:11:19;12.50;99.90
23532;DHT22;11943;52.270;20.978;2022-09-09T06:13:45;12.40;99.90
23532;DHT22;11943;52.270;20.978;2022-09-09T06:16:12;12.50;99.90
23532;DHT22;11943;52.270;20.978;2022-09-09T06:18:38;12.50;99.90
23532;DHT22;11943;52.270;20.978;2022-09-09T06:21:04;12.40;99.90
23532;DHT22;11943;52.270;20.978;2022-09-09T06:23:30;12.50;99.90
23532;DHT22;11943;52.270;20.978;2022-09-09T06:28:31;12.60;99.90
23532;DHT22;11943;52.270;20.978;2022-09-09T06:30:57;12.60;99.90
23532;DHT22;11943;52.270;20.978;2022-09-09T06:33:23;12.60;99.90
23532;DHT22;11943;52.270;20.978;2022-09-09T06:35:52;12.60;99.90
23532;DHT22;11943;52.270;20.978;2022-09-09T06:38:18;12.70;99.90
23532;DHT22;11943;52.270;20.978;2022-09-09T06:40:50;12.70;99.90
23532;DHT22;11943;52.270;20.978;2022-09-09T06:43:16;12.60;99.90
23532;DHT22;11943;52.270;20.978;2022-09-09T06:45:42;12.60;99.90
23532;DHT22;11943;52.270;20.978;2022-09-09T06:48:07;12.70;99.90
23532;DHT22;11943;52.270;20.978;2022-09-09T06:50:34;12.70;99.90
23532;DHT22;11943;52.270;20.978;2022-09-09T06:53:00;12.70;99.90
23532;DHT22;11943;52.270;20.978;2022-09-09T06:55:25;13.00;99.90
23532;DHT22;11943;52.270;20.978;2022-09-09T06:57:50;12.50;99.90
23532;DHT22;11943;52.270;20.978;2022-09-09T07:00:17;12.60;99.90
23532;DHT22;11943;52.270;20.978;2022-09-09T07:02:43;12.60;99.90
23532;DHT22;11943;52.270;20.978;2022-09-09T07:05:09;12.70;99.90
23532;DHT22;11943;52.270;20.978;2022-09-09T07:07:35;12.60;99.90
23532;DHT22;11943;52.270;20.978;2022-09-09T07:10:00;13.00;99.90
23532;DHT22;11943;52.270;20.978;2022-09-09T07:12:26;12.60;99.90
23532;DHT22;11943;52.270;20.978;2022-09-09T07:14:51;12.70;99.90
23532;DHT22;11943;52.270;20.978;2022-09-09T07:17:17;12.80;99.90
23532;DHT22;11943;52.270;20.978;2022-09-09T07:19:42;12.70;99.90
23532;DHT22;11943;52.270;20.978;2022-09-09T07:22:08;12.80;99.90
23532;DHT22;11943;52.270;20.978;2022-09-09T07:24:35;12.70;99.90
23532;DHT22;11943;52.270;20.978;2022-09-09T07:27:01;12.90;99.90
23532;DHT22;11943;52.270;20.978;2022-09-09T07:29:28;12.90;99.90
23532;DHT22;11943;52.270;20.978;2022-09-09T07:31:53;12.90;99.90
23532;DHT22;11943;52.270;20.978;2022-09-09T07:34:19;12.90;99.90
23532;DHT22;11943;52.270;20.978;2022-09-09T07:36:45;12.80;99.90
23532;DHT22;11943;52.270;20.978;2022-09-09T07:39:12;12.80;99.90
23532;DHT22;11943;52.270;20.978;2022-09-09T07:41:42;12.70;99.90
23532;DHT22;11943;52.270;20.978;2022-09-09T07:44:09;12.60;99.90
23532;DHT22;11943;52.270;20.978;2022-09-09T07:46:36;12.70;99.90
23532;DHT22;11943;52.270;20.978;2022-09-09T07:49:01;12.70;99.90
23532;DHT22;11943;52.270;20.978;2022-09-09T07:51:29;12.90;99.90
23532;DHT22;11943;52.270;20.978;2022-09-09T07:53:56;12.90;99.90
23532;DHT22;11943;52.270;20.978;2022-09-09T07:56:23;13.00;99.90
23532;DHT22;11943;52.270;20.978;2022-09-09T07:58:49;13.00;99.90
23532;DHT22;11943;52.270;20.978;2022-09-09T08:03:47;13.20;99.90
23532;DHT22;11943;52.270;20.978;2022-09-09T08:06:17;13.40;99.90
23532;DHT22;11943;52.270;20.978;2022-09-09T08:08:43;13.20;99.90
23532;DHT22;11943;52.270;20.978;2022-09-09T08:11:12;13.20;99.90
23532;DHT22;11943;52.270;20.978;2022-09-09T08:13:40;13.20;99.90
23532;DHT22;11943;52.270;20.978;2022-09-09T08:16:16;13.10;99.90
23532;DHT22;11943;52.270;20.978;2022-09-09T08:18:41;13.10;99.90
23532;DHT22;11943;52.270;20.978;2022-09-09T08:21:08;13.10;99.90
23532;DHT22;11943;52.270;20.978;2022-09-09T08:23:34;13.10;99.90
23532;DHT22;11943;52.270;20.978;2022-09-09T08:26:08;13.20;99.90
23532;DHT22;11943;52.270;20.978;2022-09-09T08:28:34;13.20;99.90
23532;DHT22;11943;52.270;20.978;2022-09-09T08:33:53;13.10;99.90
23532;DHT22;11943;52.270;20.978;2022-09-09T08:36:20;13.10;99.90
23532;DHT22;11943;52.270;20.978;2022-09-09T08:38:47;13.20;99.90
23532;DHT22;11943;52.270;20.978;2022-09-09T08:41:17;13.20;99.90
23532;DHT22;11943;52.270;20.978;2022-09-09T08:43:48;13.20;99.90
23532;DHT22;11943;52.270;20.978;2022-09-09T08:46:26;13.20;99.90
23532;DHT22;11943;52.270;20.978;2022-09-09T08:49:07;13.30;99.90
23532;DHT22;11943;52.270;20.978;2022-09-09T08:51:39;13.40;99.90
23532;DHT22;11943;52.270;20.978;2022-09-09T08:54:05;13.40;99.90
23532;DHT22;11943;52.270;20.978;2022-09-09T08:56:31;13.40;99.90
23532;DHT22;11943;52.270;20.978;2022-09-09T08:58:58;13.40;99.90
23532;DHT22;11943;52.270;20.978;2022-09-09T09:12:12;13.60;99.90
23532;DHT22;11943;52.270;20.978;2022-09-09T09:14:40;13.70;99.90
23532;DHT22;11943;52.270;20.978;2022-09-09T09:17:06;13.70;99.90
23532;DHT22;11943;52.270;20.978;2022-09-09T09:19:34;13.60;99.90
23532;DHT22;11943;52.270;20.978;2022-09-09T09:27:01;13.60;99.90
23532;DHT22;11943;52.270;20.978;2022-09-09T09:29:32;13.60;99.90
23532;DHT22;11943;52.270;20.978;2022-09-09T09:32:00;13.60;99.90
23532;DHT22;11943;52.270;20.978;2022-09-09T09:34:27;13.60;99.90
23532;DHT22;11943;52.270;20.978;2022-09-09T09:39:27;13.70;99.90
23532;DHT22;11943;52.270;20.978;2022-09-09T09:41:53;13.70;99.90
23532;DHT22;11943;52.270;20.978;2022-09-09T09:44:40;13.70;99.90
23532;DHT22;11943;52.270;20.978;2022-09-09T09:47:06;13.60;99.90
23532;DHT22;11943;52.270;20.978;2022-09-09T09:49:32;13.60;99.90
23532;DHT22;11943;52.270;20.978;2022-09-09T09:52:01;13.60;99.90
23532;DHT22;11943;52.270;20.978;2022-09-09T09:54:28;13.60;99.90
23532;DHT22;11943;52.270;20.978;2022-09-09T09:56:55;13.70;99.90
23532;DHT22;11943;52.270;20.978;2022-09-09T09:59:33;13.80;99.90
23532;DHT22;11943;52.270;20.978;2022-09-09T10:04:40;13.70;99.90
23532;DHT22;11943;52.270;20.978;2022-09-09T10:07:10;13.60;99.90
23532;DHT22;11943;52.270;20.978;2022-09-09T10:09:36;13.70;99.90
23532;DHT22;11943;52.270;20.978;2022-09-09T10:12:05;13.80;99.90
23532;DHT22;11943;52.270;20.978;2022-09-09T10:14:40;13.80;99.90
23532;DHT22;11943;52.270;20.978;2022-09-09T10:22:25;14.00;99.90
23532;DHT22;11943;52.270;20.978;2022-09-09T10:30:19;13.90;99.90
23532;DHT22;11943;52.270;20.978;2022-09-09T10:35:24;13.90;99.90
23532;DHT22;11943;52.270;20.978;2022-09-09T10:42:45;13.90;99.90
23532;DHT22;11943;52.270;20.978;2022-09-09T10:45:32;13.70;99.90
23532;DHT22;11943;52.270;20.978;2022-09-09T10:48:09;13.80;99.90
23532;DHT22;11943;52.270;20.978;2022-09-09T10:56:06;13.90;99.90
23532;DHT22;11943;52.270;20.978;2022-09-09T10:58:36;13.80;99.90
23532;DHT22;11943;52.270;20.978;2022-09-09T11:01:08;13.90;99.90
23532;DHT22;11943;52.270;20.978;2022-09-09T11:03:35;14.00;99.90
23532;DHT22;11943;52.270;20.978;2022-09-09T11:06:06;14.10;99.90
23532;DHT22;11943;52.270;20.978;2022-09-09T11:08:36;14.10;99.90
23532;DHT22;11943;52.270;20.978;2022-09-09T11:11:04;14.20;99.90
23532;DHT22;11943;52.270;20.978;2022-09-09T11:16:25;14.20;99.90
23532;DHT22;11943;52.270;20.978;2022-09-09T11:18:48;14.30;99.90
23532;DHT22;11943;52.270;20.978;2022-09-09T11:21:17;14.20;99.90
23532;DHT22;11943;52.270;20.978;2022-09-09T11:23:47;14.20;99.90
23532;DHT22;11943;52.270;20.978;2022-09-09T11:26:27;14.30;99.90
23532;DHT22;11943;52.270;20.978;2022-09-09T11:31:34;14.20;99.90
23532;DHT22;11943;52.270;20.978;2022-09-09T11:36:49;14.20;99.90
23532;DHT22;11943;52.270;20.978;2022-09-09T11:41:52;14.20;99.90
23532;DHT22;11943;52.270;20.978;2022-09-09T11:44:29;14.20;99.90
23532;DHT22;11943;52.270;20.978;2022-09-09T11:46:55;14.30;99.90
23532;DHT22;11943;52.270;20.978;2022-09-09T11:49:25;14.40;99.90
23532;DHT22;11943;52.270;20.978;2022-09-09T11:51:51;14.40;99.90
23532;DHT22;11943;52.270;20.978;2022-09-09T11:54:33;14.50;99.90
23532;DHT22;11943;52.270;20.978;2022-09-09T11:57:42;14.40;99.90
23532;DHT22;11943;52.270;20.978;2022-09-09T12:00:01;14.50;99.90
23532;DHT22;11943;52.270;20.978;2022-09-09T12:02:28;14.60;99.90
23532;DHT22;11943;52.270;20.978;2022-09-09T12:05:06;14.50;99.90
23532;DHT22;11943;52.270;20.978;2022-09-09T12:07:35;14.60;99.90
23532;DHT22;11943;52.270;20.978;2022-09-09T12:10:04;14.60;99.90
23532;DHT22;11943;52.270;20.978;2022-09-09T12:12:31;14.60;99.90
23532;DHT22;11943;52.270;20.978;2022-09-09T12:15:02;14.50;99.90
23532;DHT22;11943;52.270;20.978;2022-09-09T12:17:28;14.60;99.90
23532;DHT22;11943;52.270;20.978;2022-09-09T12:22:50;14.70;99.90
23532;DHT22;11943;52.270;20.978;2022-09-09T12:33:18;14.60;99.90
23532;DHT22;11943;52.270;20.978;2022-09-09T12:35:45;14.60;99.90
23532;DHT22;11943;52.270;20.978;2022-09-09T12:39:09;14.60;99.90
23532;DHT22;11943;52.270;20.978;2022-09-09T12:41:00;14.70;99.90
23532;DHT22;11943;52.270;20.978;2022-09-09T12:43:26;14.70;99.90
23532;DHT22;11943;52.270;20.978;2022-09-09T12:45:53;14.80;99.90
23532;DHT22;11943;52.270;20.978;2022-09-09T12:48:25;14.80;99.90
23532;DHT22;11943;52.270;20.978;2022-09-09T12:50:52;14.90;99.90
23532;DHT22;11943;52.270;20.978;2022-09-09T12:53:22;15.00;99.90
23532;DHT22;11943;52.270;20.978;2022-09-09T12:58:19;15.10;99.90
23532;DHT22;11943;52.270;20.978;2022-09-09T13:00:52;15.20;99.90
23532;DHT22;11943;52.270;20.978;2022-09-09T13:03:18;15.00;99.90
23532;DHT22;11943;52.270;20.978;2022-09-09T13:05:45;15.00;99.90
23532;DHT22;11943;52.270;20.978;2022-09-09T13:08:12;15.00;99.90
23532;DHT22;11943;52.270;20.978;2022-09-09T13:10:52;15.00;99.90
23532;DHT22;11943;52.270;20.978;2022-09-09T13:13:29;14.90;99.90
23532;DHT22;11943;52.270;20.978;2022-09-09T13:15:56;14.80;99.90
23532;DHT22;11943;52.270;20.978;2022-09-09T13:18:23;14.80;99.90
23532;DHT22;11943;52.270;20.978;2022-09-09T13:20:50;14.60;99.90
23532;DHT22;11943;52.270;20.978;2022-09-09T13:23:16;14.60;99.90
23532;DHT22;11943;52.270;20.978;2022-09-09T13:25:54;14.60;99.90
23532;DHT22;11943;52.270;20.978;2022-09-09T13:28:22;14.60;99.90
23532;DHT22;11943;52.270;20.978;2022-09-09T13:31:00;14.70;99.90
23532;DHT22;11943;52.270;20.978;2022-09-09T13:33:36;14.70;99.90
23532;DHT22;11943;52.270;20.978;2022-09-09T13:38:32;14.50;99.90
23532;DHT22;11943;52.270;20.978;2022-09-09T13:43:27;14.40;99.90
23532;DHT22;11943;52.270;20.978;2022-09-09T13:45:54;14.50;99.90
23532;DHT22;11943;52.270;20.978;2022-09-09T13:48:20;14.50;99.90
23532;DHT22;11943;52.270;20.978;2022-09-09T13:50:56;14.60;99.90
23532;DHT22;11943;52.270;20.978;2022-09-09T13:53:21;14.60;99.90
23532;DHT22;11943;52.270;20.978;2022-09-09T13:55:47;14.60;99.90
23532;DHT22;11943;52.270;20.978;2022-09-09T13:58:16;14.50;99.90
23532;DHT22;11943;52.270;20.978;2022-09-09T14:00:46;14.40;99.90
23532;DHT22;11943;52.270;20.978;2022-09-09T14:03:12;14.40;99.90
23532;DHT22;11943;52.270;20.978;2022-09-09T14:05:38;14.40;99.90
23532;DHT22;11943;52.270;20.978;2022-09-09T14:08:04;14.40;99.90
23532;DHT22;11943;52.270;20.978;2022-09-09T14:10:30;14.40;99.90
23532;DHT22;11943;52.270;20.978;2022-09-09T14:12:56;14.40;99.90
23532;DHT22;11943;52.270;20.978;2022-09-09T14:15:21;14.40;99.90
23532;DHT22;11943;52.270;20.978;2022-09-09T14:17:47;14.30;99.90
23532;DHT22;11943;52.270;20.978;2022-09-09T14:20:14;14.30;99.90
23532;DHT22;11943;52.270;20.978;2022-09-09T14:22:40;14.30;99.90
23532;DHT22;11943;52.270;20.978;2022-09-09T14:25:06;14.30;99.90
23532;DHT22;11943;52.270;20.978;2022-09-09T14:27:32;14.30;99.90
23532;DHT22;11943;52.270;20.978;2022-09-09T14:29:58;14.40;99.90
23532;DHT22;11943;52.270;20.978;2022-09-09T14:32:25;14.40;99.90
23532;DHT22;11943;52.270;20.978;2022-09-09T14:34:50;14.50;99.90
23532;DHT22;11943;52.270;20.978;2022-09-09T14:37:16;14.40;99.90
23532;DHT22;11943;52.270;20.978;2022-09-09T14:39:42;14.40;99.90
23532;DHT22;11943;52.270;20.978;2022-09-09T14:42:09;14.50;99.90
23532;DHT22;11943;52.270;20.978;2022-09-09T14:44:39;14.60;99.90
23532;DHT22;11943;52.270;20.978;2022-09-09T14:47:06;14.70;99.90
23532;DHT22;11943;52.270;20.978;2022-09-09T14:49:33;14.80;99.90
23532;DHT22;11943;52.270;20.978;2022-09-09T14:51:59;14.70;99.90
23532;DHT22;11943;52.270;20.978;2022-09-09T14:54:24;14.60;99.90
23532;DHT22;11943;52.270;20.978;2022-09-09T14:56:50;14.70;99.90
23532;DHT22;11943;52.270;20.978;2022-09-09T14:59:15;14.50;99.90
23532;DHT22;11943;52.270;20.978;2022-09-09T15:01:41;14.60;99.90
23532;DHT22;11943;52.270;20.978;2022-09-09T15:04:06;14.60;99.90
23532;DHT22;11943;52.270;20.978;2022-09-09T15:06:33;14.60;99.90
23532;DHT22;11943;52.270;20.978;2022-09-09T15:08:59;14.50;99.90
23532;DHT22;11943;52.270;20.978;2022-09-09T15:11:26;14.50;99.90
23532;DHT22;11943;52.270;20.978;2022-09-09T15:13:53;14.50;99.90
23532;DHT22;11943;52.270;20.978;2022-09-09T15:16:19;14.50;99.90
23532;DHT22;11943;52.270;20.978;2022-09-09T15:18:45;14.60;99.90
23532;DHT22;11943;52.270;20.978;2022-09-09T15:23:37;14.50;99.90
23532;DHT22;11943;52.270;20.978;2022-09-09T15:26:02;14.50;99.90
23532;DHT22;11943;52.270;20.978;2022-09-09T15:28:28;14.50;99.90
23532;DHT22;11943;52.270;20.978;2022-09-09T15:30:54;14.60;99.90
23532;DHT22;11943;52.270;20.978;2022-09-09T15:33:20;14.50;99.90
23532;DHT22;11943;52.270;20.978;2022-09-09T15:35:46;14.60;99.90
23532;DHT22;11943;52.270;20.978;2022-09-09T15:38:11;14.70;99.90
23532;DHT22;11943;52.270;20.978;2022-09-09T15:40:42;14.60;99.90
23532;DHT22;11943;52.270;20.978;2022-09-09T15:43:08;14.60;99.90
23532;DHT22;11943;52.270;20.978;2022-09-09T15:45:34;14.60;99.90
23532;DHT22;11943;52.270;20.978;2022-09-09T15:48:00;14.70;99.90
23532;DHT22;11943;52.270;20.978;2022-09-09T15:50:26;14.70;99.90
23532;DHT22;11943;52.270;20.978;2022-09-09T15:52:52;14.70;99.90
23532;DHT22;11943;52.270;20.978;2022-09-09T15:55:18;14.70;99.90
23532;DHT22;11943;52.270;20.978;2022-09-09T15:57:44;14.60;99.90
23532;DHT22;11943;52.270;20.978;2022-09-09T16:00:10;14.60;99.90
23532;DHT22;11943;52.270;20.978;2022-09-09T16:02:37;14.70;99.90
23532;DHT22;11943;52.270;20.978;2022-09-09T16:05:03;14.60;99.90
23532;DHT22;11943;52.270;20.978;2022-09-09T16:07:28;14.60;99.90
23532;DHT22;11943;52.270;20.978;2022-09-09T16:09:54;14.60;99.90
23532;DHT22;11943;52.270;20.978;2022-09-09T16:12:19;14.60;99.90
23532;DHT22;11943;52.270;20.978;2022-09-09T16:14:45;14.70;99.90
23532;DHT22;11943;52.270;20.978;2022-09-09T16:17:10;14.70;99.90
23532;DHT22;11943;52.270;20.978;2022-09-09T16:19:36;14.80;99.90
23532;DHT22;11943;52.270;20.978;2022-09-09T16:22:02;14.80;99.90
23532;DHT22;11943;52.270;20.978;2022-09-09T16:24:29;14.80;99.90
23532;DHT22;11943;52.270;20.978;2022-09-09T16:26:54;14.70;99.90
23532;DHT22;11943;52.270;20.978;2022-09-09T16:29:20;14.60;99.90
23532;DHT22;11943;52.270;20.978;2022-09-09T16:31:47;14.60;99.90
23532;DHT22;11943;52.270;20.978;2022-09-09T16:34:13;14.60;99.90
23532;DHT22;11943;52.270;20.978;2022-09-09T16:36:40;14.50;99.90
23532;DHT22;11943;52.270;20.978;2022-09-09T16:39:06;14.40;99.90
23532;DHT22;11943;52.270;20.978;2022-09-09T16:41:34;14.50;99.90
23532;DHT22;11943;52.270;20.978;2022-09-09T16:44:00;14.50;99.90
23532;DHT22;11943;52.270;20.978;2022-09-09T16:46:28;14.50;99.90
23532;DHT22;11943;52.270;20.978;2022-09-09T16:48:55;14.40;99.90
23532;DHT22;11943;52.270;20.978;2022-09-09T16:51:42;14.40;99.90
23532;DHT22;11943;52.270;20.978;2022-09-09T16:54:07;14.40;99.90
23532;DHT22;11943;52.270;20.978;2022-09-09T16:56:34;14.40;99.90
23532;DHT22;11943;52.270;20.978;2022-09-09T16:59:03;14.40;99.90
23532;DHT22;11943;52.270;20.978;2022-09-09T17:01:29;14.40;99.90
23532;DHT22;11943;52.270;20.978;2022-09-09T17:03:59;14.40;99.90
23532;DHT22;11943;52.270;20.978;2022-09-09T17:06:26;14.40;99.90
23532;DHT22;11943;52.270;20.978;2022-09-09T17:09:00;14.40;99.90
23532;DHT22;11943;52.270;20.978;2022-09-09T17:11:26;14.30;99.90
23532;DHT22;11943;52.270;20.978;2022-09-09T17:13:52;14.30;99.90
23532;DHT22;11943;52.270;20.978;2022-09-09T17:16:19;14.20;99.90
23532;DHT22;11943;52.270;20.978;2022-09-09T17:18:47;14.20;99.90
23532;DHT22;11943;52.270;20.978;2022-09-09T17:21:13;14.20;99.90
23532;DHT22;11943;52.270;20.978;2022-09-09T17:23:39;14.10;99.90
23532;DHT22;11943;52.270;20.978;2022-09-09T17:26:06;14.10;99.90
23532;DHT22;11943;52.270;20.978;2022-09-09T17:28:33;14.10;99.90
23532;DHT22;11943;52.270;20.978;2022-09-09T17:30:58;14.10;99.90
23532;DHT22;11943;52.270;20.978;2022-09-09T17:33:27;14.10;99.90